sensor_id;sensor_type;location;lat;lon;timestamp;P1;durP1;ratioP1;P2;durP2;ratioP2
8040;SDS011;4063;48.140;10.250;2023-11-19T00:02:18;2.30;;;1.93;;
8040;SDS011;4063;48.140;10.250;2023-11-19T00:04:44;1.97;;;1.77;;
8040;SDS011;4063;48.140;10.250;2023-11-19T00:07:10;2.53;;;2.13;;
8040;SDS011;4063;48.140;10.250;2023-11-19T00:09:38;2.37;;;2.17;;
8040;SDS011;4063;48.140;10.250;2023-11-19T00:12:04;2.80;;;1.90;;
8040;SDS011;4063;48.140;10.250;2023-11-19T00:14:30;3.70;;;1.93;;
8040;SDS011;4063;48.140;10.250;2023-11-19T00:16:56;2.67;;;1.80;;
8040;SDS011;4063;48.140;10.250;2023-11-19T00:19:22;2.10;;;2.00;;
8040;SDS011;4063;48.140;10.250;2023-11-19T00:21:48;2.43;;;2.20;;
8040;SDS011;4063;48.140;10.250;2023-11-19T00:24:14;2.10;;;1.90;;
8040;SDS011;4063;48.140;10.250;2023-11-19T00:26:43;3.57;;;1.77;;
8040;SDS011;4063;48.140;10.250;2023-11-19T00:29:10;2.97;;;2.40;;
8040;SDS011;4063;48.140;10.250;2023-11-19T00:31:36;2.60;;;2.20;;
8040;SDS011;4063;48.140;10.250;2023-11-19T00:34:03;2.40;;;2.20;;
8040;SDS011;4063;48.140;10.250;2023-11-19T00:36:31;1.80;;;1.70;;
8040;SDS011;4063;48.140;10.250;2023-11-19T00:38:57;3.47;;;2.10;;
8040;SDS011;4063;48.140;10.250;2023-11-19T00:41:23;2.40;;;2.20;;
8040;SDS011;4063;48.140;10.250;2023-11-19T00:43:50;2.10;;;1.90;;
8040;SDS011;4063;48.140;10.250;2023-11-19T00:46:16;2.40;;;2.20;;
8040;SDS011;4063;48.140;10.250;2023-11-19T00:48:42;3.97;;;2.07;;
8040;SDS011;4063;48.140;10.250;2023-11-19T00:51:08;2.87;;;2.40;;
8040;SDS011;4063;48.140;10.250;2023-11-19T00:53:34;2.97;;;2.67;;
8040;SDS011;4063;48.140;10.250;2023-11-19T00:56:00;2.60;;;2.40;;
8040;SDS011;4063;48.140;10.250;2023-11-19T00:58:26;2.80;;;2.60;;
8040;SDS011;4063;48.140;10.250;2023-11-19T01:00:52;2.80;;;2.60;;
8040;SDS011;4063;48.140;10.250;2023-11-19T01:03:18;3.17;;;2.73;;
8040;SDS011;4063;48.140;10.250;2023-11-19T01:05:44;3.40;;;2.77;;
8040;SDS011;4063;48.140;10.250;2023-11-19T01:08:12;3.00;;;2.70;;
8040;SDS011;4063;48.140;10.250;2023-11-19T01:10:38;3.50;;;3.20;;
8040;SDS011;4063;48.140;10.250;2023-11-19T01:13:04;3.50;;;3.20;;
8040;SDS011;4063;48.140;10.250;2023-11-19T01:15:31;4.53;;;3.17;;
8040;SDS011;4063;48.140;10.250;2023-11-19T01:17:57;3.77;;;3.27;;
8040;SDS011;4063;48.140;10.250;2023-11-19T01:20:23;4.23;;;2.87;;
8040;SDS011;4063;48.140;10.250;2023-11-19T01:22:49;4.70;;;3.43;;
8040;SDS011;4063;48.140;10.250;2023-11-19T01:25:15;3.37;;;3.03;;
8040;SDS011;4063;48.140;10.250;2023-11-19T01:27:41;3.10;;;2.90;;
8040;SDS011;4063;48.140;10.250;2023-11-19T01:30:07;2.80;;;2.60;;
8040;SDS011;4063;48.140;10.250;2023-11-19T01:32:40;3.73;;;2.70;;
8040;SDS011;4063;48.140;10.250;2023-11-19T01:35:06;2.70;;;2.50;;
8040;SDS011;4063;48.140;10.250;2023-11-19T01:37:36;1.33;;;1.23;;
8040;SDS011;4063;48.140;10.250;2023-11-19T01:40:02;0.30;;;0.30;;
8040;SDS011;4063;48.140;10.250;2023-11-19T01:42:29;0.30;;;0.30;;
8040;SDS011;4063;48.140;10.250;2023-11-19T01:44:59;0.20;;;0.20;;
8040;SDS011;4063;48.140;10.250;2023-11-19T01:47:25;0.20;;;0.20;;
8040;SDS011;4063;48.140;10.250;2023-11-19T01:49:51;0.20;;;0.20;;
8040;SDS011;4063;48.140;10.250;2023-11-19T01:52:18;0.30;;;0.30;;
8040;SDS011;4063;48.140;10.250;2023-11-19T01:54:45;0.20;;;0.20;;
8040;SDS011;4063;48.140;10.250;2023-11-19T01:57:12;0.20;;;0.20;;
8040;SDS011;4063;48.140;10.250;2023-11-19T01:59:38;0.30;;;0.30;;
8040;SDS011;4063;48.140;10.250;2023-11-19T02:02:04;0.20;;;0.20;;
8040;SDS011;4063;48.140;10.250;2023-11-19T02:04:31;0.20;;;0.20;;
8040;SDS011;4063;48.140;10.250;2023-11-19T02:06:57;0.30;;;0.30;;
8040;SDS011;4063;48.140;10.250;2023-11-19T02:09:24;0.20;;;0.20;;
8040;SDS011;4063;48.140;10.250;2023-11-19T02:11:50;0.20;;;0.20;;
8040;SDS011;4063;48.140;10.250;2023-11-19T02:14:17;0.30;;;0.30;;
8040;SDS011;4063;48.140;10.250;2023-11-19T02:16:43;0.20;;;0.20;;
8040;SDS011;4063;48.140;10.250;2023-11-19T02:19:09;0.20;;;0.20;;
8040;SDS011;4063;48.140;10.250;2023-11-19T02:21:36;0.20;;;0.20;;
8040;SDS011;4063;48.140;10.250;2023-11-19T02:24:06;0.20;;;0.20;;
8040;SDS011;4063;48.140;10.250;2023-11-19T02:26:58;0.30;;;0.30;;
8040;SDS011;4063;48.140;10.250;2023-11-19T02:29:19;0.20;;;0.20;;
8040;SDS011;4063;48.140;10.250;2023-11-19T02:31:45;0.20;;;0.20;;
8040;SDS011;4063;48.140;10.250;2023-11-19T02:34:12;0.47;;;0.47;;
8040;SDS011;4063;48.140;10.250;2023-11-19T02:36:38;0.20;;;0.20;;
8040;SDS011;4063;48.140;10.250;2023-11-19T02:39:06;0.20;;;0.20;;
8040;SDS011;4063;48.140;10.250;2023-11-19T02:41:35;0.20;;;0.20;;
8040;SDS011;4063;48.140;10.250;2023-11-19T02:44:01;0.20;;;0.20;;
8040;SDS011;4063;48.140;10.250;2023-11-19T02:46:28;0.30;;;0.30;;
8040;SDS011;4063;48.140;10.250;2023-11-19T02:48:54;0.20;;;0.20;;
8040;SDS011;4063;48.140;10.250;2023-11-19T02:51:20;0.20;;;0.20;;
8040;SDS011;4063;48.140;10.250;2023-11-19T02:53:46;0.20;;;0.20;;
8040;SDS011;4063;48.140;10.250;2023-11-19T02:56:13;0.20;;;0.20;;
8040;SDS011;4063;48.140;10.250;2023-11-19T02:58:50;0.20;;;0.20;;
8040;SDS011;4063;48.140;10.250;2023-11-19T03:01:23;0.30;;;0.30;;
8040;SDS011;4063;48.140;10.250;2023-11-19T03:03:54;0.20;;;0.20;;
8040;SDS011;4063;48.140;10.250;2023-11-19T03:06:22;0.20;;;0.20;;
8040;SDS011;4063;48.140;10.250;2023-11-19T03:08:48;0.20;;;0.20;;
8040;SDS011;4063;48.140;10.250;2023-11-19T03:11:14;0.20;;;0.20;;
8040;SDS011;4063;48.140;10.250;2023-11-19T03:13:40;0.20;;;0.20;;
8040;SDS011;4063;48.140;10.250;2023-11-19T03:16:06;0.20;;;0.20;;
8040;SDS011;4063;48.140;10.250;2023-11-19T03:18:33;0.20;;;0.20;;
8040;SDS011;4063;48.140;10.250;2023-11-19T03:20:59;0.20;;;0.20;;
8040;SDS011;4063;48.140;10.250;2023-11-19T03:23:25;0.30;;;0.30;;
8040;SDS011;4063;48.140;10.250;2023-11-19T03:25:54;0.30;;;0.30;;
8040;SDS011;4063;48.140;10.250;2023-11-19T03:28:20;0.20;;;0.20;;
8040;SDS011;4063;48.140;10.250;2023-11-19T03:30:46;0.30;;;0.30;;
8040;SDS011;4063;48.140;10.250;2023-11-19T03:33:12;0.23;;;0.23;;
8040;SDS011;4063;48.140;10.250;2023-11-19T03:35:38;0.20;;;0.20;;
8040;SDS011;4063;48.140;10.250;2023-11-19T03:38:06;0.20;;;0.20;;
8040;SDS011;4063;48.140;10.250;2023-11-19T03:40:32;0.20;;;0.20;;
8040;SDS011;4063;48.140;10.250;2023-11-19T03:42:58;0.17;;;0.17;;
8040;SDS011;4063;48.140;10.250;2023-11-19T03:45:24;0.20;;;0.20;;
8040;SDS011;4063;48.140;10.250;2023-11-19T03:47:50;0.20;;;0.20;;
8040;SDS011;4063;48.140;10.250;2023-11-19T03:50:16;0.20;;;0.20;;
8040;SDS011;4063;48.140;10.250;2023-11-19T03:52:45;0.20;;;0.20;;
8040;SDS011;4063;48.140;10.250;2023-11-19T03:55:10;0.20;;;0.20;;
8040;SDS011;4063;48.140;10.250;2023-11-19T03:57:37;0.20;;;0.20;;
8040;SDS011;4063;48.140;10.250;2023-11-19T04:00:03;0.20;;;0.20;;
8040;SDS011;4063;48.140;10.250;2023-11-19T04:02:36;0.13;;;0.13;;
8040;SDS011;4063;48.140;10.250;2023-11-19T04:05:02;0.20;;;0.20;;
8040;SDS011;4063;48.140;10.250;2023-11-19T04:07:29;0.20;;;0.20;;
8040;SDS011;4063;48.140;10.250;2023-11-19T04:09:56;0.20;;;0.20;;
8040;SDS011;4063;48.140;10.250;2023-11-19T04:12:22;0.30;;;0.30;;
8040;SDS011;4063;48.140;10.250;2023-11-19T04:14:48;0.20;;;0.20;;
8040;SDS011;4063;48.140;10.250;2023-11-19T04:17:14;0.20;;;0.20;;
8040;SDS011;4063;48.140;10.250;2023-11-19T04:19:40;0.30;;;0.30;;
8040;SDS011;4063;48.140;10.250;2023-11-19T04:22:07;0.20;;;0.20;;
8040;SDS011;4063;48.140;10.250;2023-11-19T04:24:34;0.30;;;0.30;;
8040;SDS011;4063;48.140;10.250;2023-11-19T04:27:00;0.20;;;0.20;;
8040;SDS011;4063;48.140;10.250;2023-11-19T04:29:26;0.20;;;0.20;;
8040;SDS011;4063;48.140;10.250;2023-11-19T04:31:52;0.20;;;0.20;;
8040;SDS011;4063;48.140;10.250;2023-11-19T04:34:18;0.20;;;0.20;;
8040;SDS011;4063;48.140;10.250;2023-11-19T04:36:44;0.30;;;0.30;;
8040;SDS011;4063;48.140;10.250;2023-11-19T04:39:10;0.20;;;0.20;;
8040;SDS011;4063;48.140;10.250;2023-11-19T04:41:37;0.20;;;0.20;;
8040;SDS011;4063;48.140;10.250;2023-11-19T04:44:10;0.20;;;0.20;;
8040;SDS011;4063;48.140;10.250;2023-11-19T04:46:36;0.20;;;0.20;;
8040;SDS011;4063;48.140;10.250;2023-11-19T04:49:02;0.20;;;0.20;;
8040;SDS011;4063;48.140;10.250;2023-11-19T04:51:29;0.20;;;0.20;;
8040;SDS011;4063;48.140;10.250;2023-11-19T04:53:55;0.20;;;0.20;;
8040;SDS011;4063;48.140;10.250;2023-11-19T04:56:21;0.20;;;0.20;;
8040;SDS011;4063;48.140;10.250;2023-11-19T04:58:48;0.20;;;0.20;;
8040;SDS011;4063;48.140;10.250;2023-11-19T05:01:14;0.20;;;0.20;;
8040;SDS011;4063;48.140;10.250;2023-11-19T05:03:43;0.20;;;0.20;;
8040;SDS011;4063;48.140;10.250;2023-11-19T05:06:10;0.20;;;0.20;;
8040;SDS011;4063;48.140;10.250;2023-11-19T05:08:36;0.20;;;0.20;;
8040;SDS011;4063;48.140;10.250;2023-11-19T05:11:02;0.20;;;0.20;;
8040;SDS011;4063;48.140;10.250;2023-11-19T05:13:28;0.20;;;0.20;;
8040;SDS011;4063;48.140;10.250;2023-11-19T05:15:54;0.20;;;0.20;;
8040;SDS011;4063;48.140;10.250;2023-11-19T05:18:20;0.20;;;0.20;;
8040;SDS011;4063;48.140;10.250;2023-11-19T05:20:46;0.20;;;0.20;;
8040;SDS011;4063;48.140;10.250;2023-11-19T05:23:12;0.20;;;0.20;;
8040;SDS011;4063;48.140;10.250;2023-11-19T05:25:38;0.30;;;0.30;;
8040;SDS011;4063;48.140;10.250;2023-11-19T05:28:04;0.20;;;0.20;;
8040;SDS011;4063;48.140;10.250;2023-11-19T05:30:30;0.20;;;0.20;;
8040;SDS011;4063;48.140;10.250;2023-11-19T05:32:56;0.30;;;0.30;;
8040;SDS011;4063;48.140;10.250;2023-11-19T05:35:22;0.20;;;0.20;;
8040;SDS011;4063;48.140;10.250;2023-11-19T05:37:48;0.20;;;0.20;;
8040;SDS011;4063;48.140;10.250;2023-11-19T05:40:15;0.40;;;0.40;;
8040;SDS011;4063;48.140;10.250;2023-11-19T05:42:41;0.20;;;0.20;;
8040;SDS011;4063;48.140;10.250;2023-11-19T05:45:07;0.20;;;0.20;;
8040;SDS011;4063;48.140;10.250;2023-11-19T05:47:34;0.20;;;0.20;;
8040;SDS011;4063;48.140;10.250;2023-11-19T05:50:00;0.20;;;0.20;;
8040;SDS011;4063;48.140;10.250;2023-11-19T05:52:26;0.60;;;0.60;;
8040;SDS011;4063;48.140;10.250;2023-11-19T05:54:53;0.20;;;0.20;;
8040;SDS011;4063;48.140;10.250;2023-11-19T05:57:19;0.10;;;0.10;;
8040;SDS011;4063;48.140;10.250;2023-11-19T05:59:48;0.20;;;0.20;;
8040;SDS011;4063;48.140;10.250;2023-11-19T06:02:14;0.20;;;0.20;;
8040;SDS011;4063;48.140;10.250;2023-11-19T06:04:41;0.20;;;0.20;;
8040;SDS011;4063;48.140;10.250;2023-11-19T06:07:09;0.20;;;0.20;;
8040;SDS011;4063;48.140;10.250;2023-11-19T06:09:35;0.27;;;0.27;;
8040;SDS011;4063;48.140;10.250;2023-11-19T06:12:01;0.20;;;0.20;;
8040;SDS011;4063;48.140;10.250;2023-11-19T06:14:27;0.20;;;0.20;;
8040;SDS011;4063;48.140;10.250;2023-11-19T06:16:53;0.20;;;0.20;;
8040;SDS011;4063;48.140;10.250;2023-11-19T06:19:19;0.20;;;0.20;;
8040;SDS011;4063;48.140;10.250;2023-11-19T06:21:45;0.20;;;0.20;;
8040;SDS011;4063;48.140;10.250;2023-11-19T06:24:11;0.20;;;0.20;;
8040;SDS011;4063;48.140;10.250;2023-11-19T06:26:37;0.20;;;0.20;;
8040;SDS011;4063;48.140;10.250;2023-11-19T06:29:04;0.20;;;0.20;;
8040;SDS011;4063;48.140;10.250;2023-11-19T06:31:30;0.20;;;0.20;;
8040;SDS011;4063;48.140;10.250;2023-11-19T06:33:56;0.20;;;0.20;;
8040;SDS011;4063;48.140;10.250;2023-11-19T06:36:22;0.10;;;0.10;;
8040;SDS011;4063;48.140;10.250;2023-11-19T06:38:48;0.20;;;0.20;;
8040;SDS011;4063;48.140;10.250;2023-11-19T06:41:14;0.20;;;0.20;;
8040;SDS011;4063;48.140;10.250;2023-11-19T06:43:40;0.20;;;0.20;;
8040;SDS011;4063;48.140;10.250;2023-11-19T06:46:13;0.20;;;0.20;;
8040;SDS011;4063;48.140;10.250;2023-11-19T06:48:39;0.20;;;0.20;;
8040;SDS011;4063;48.140;10.250;2023-11-19T06:51:07;0.20;;;0.20;;
8040;SDS011;4063;48.140;10.250;2023-11-19T06:53:34;0.20;;;0.20;;
8040;SDS011;4063;48.140;10.250;2023-11-19T06:56:00;0.20;;;0.20;;
8040;SDS011;4063;48.140;10.250;2023-11-19T06:58:30;0.10;;;0.10;;
8040;SDS011;4063;48.140;10.250;2023-11-19T07:00:56;0.20;;;0.20;;
8040;SDS011;4063;48.140;10.250;2023-11-19T07:03:22;0.20;;;0.20;;
8040;SDS011;4063;48.140;10.250;2023-11-19T07:05:48;0.10;;;0.10;;
8040;SDS011;4063;48.140;10.250;2023-11-19T07:08:14;0.20;;;0.20;;
8040;SDS011;4063;48.140;10.250;2023-11-19T07:10:40;0.20;;;0.20;;
8040;SDS011;4063;48.140;10.250;2023-11-19T07:13:06;0.20;;;0.20;;
8040;SDS011;4063;48.140;10.250;2023-11-19T07:15:32;0.20;;;0.20;;
8040;SDS011;4063;48.140;10.250;2023-11-19T07:17:58;0.20;;;0.20;;
8040;SDS011;4063;48.140;10.250;2023-11-19T07:20:25;0.20;;;0.20;;
8040;SDS011;4063;48.140;10.250;2023-11-19T07:22:52;0.20;;;0.20;;
8040;SDS011;4063;48.140;10.250;2023-11-19T07:25:20;0.17;;;0.17;;
8040;SDS011;4063;48.140;10.250;2023-11-19T07:27:46;0.20;;;0.20;;
8040;SDS011;4063;48.140;10.250;2023-11-19T07:30:13;0.20;;;0.20;;
8040;SDS011;4063;48.140;10.250;2023-11-19T07:32:39;0.20;;;0.20;;
8040;SDS011;4063;48.140;10.250;2023-11-19T07:35:05;0.20;;;0.20;;
8040;SDS011;4063;48.140;10.250;2023-11-19T07:37:31;0.20;;;0.20;;
8040;SDS011;4063;48.140;10.250;2023-11-19T07:39:57;0.20;;;0.20;;
8040;SDS011;4063;48.140;10.250;2023-11-19T07:42:23;0.20;;;0.20;;
8040;SDS011;4063;48.140;10.250;2023-11-19T07:44:50;0.20;;;0.20;;
8040;SDS011;4063;48.140;10.250;2023-11-19T07:47:16;0.30;;;0.30;;
8040;SDS011;4063;48.140;10.250;2023-11-19T07:49:42;0.20;;;0.20;;
8040;SDS011;4063;48.140;10.250;2023-11-19T07:52:09;0.20;;;0.20;;
8040;SDS011;4063;48.140;10.250;2023-11-19T07:54:35;0.60;;;0.60;;
8040;SDS011;4063;48.140;10.250;2023-11-19T07:57:00;0.20;;;0.20;;
8040;SDS011;4063;48.140;10.250;2023-11-19T07:59:27;0.20;;;0.20;;
8040;SDS011;4063;48.140;10.250;2023-11-19T08:01:52;0.20;;;0.20;;
8040;SDS011;4063;48.140;10.250;2023-11-19T08:04:18;0.20;;;0.20;;
8040;SDS011;4063;48.140;10.250;2023-11-19T08:06:44;0.20;;;0.20;;
8040;SDS011;4063;48.140;10.250;2023-11-19T08:09:11;0.30;;;0.30;;
8040;SDS011;4063;48.140;10.250;2023-11-19T08:11:40;0.20;;;0.20;;
8040;SDS011;4063;48.140;10.250;2023-11-19T08:14:06;0.20;;;0.20;;
8040;SDS011;4063;48.140;10.250;2023-11-19T08:16:33;0.20;;;0.20;;
8040;SDS011;4063;48.140;10.250;2023-11-19T08:18:59;0.20;;;0.20;;
8040;SDS011;4063;48.140;10.250;2023-11-19T08:21:25;0.20;;;0.20;;
8040;SDS011;4063;48.140;10.250;2023-11-19T08:23:52;0.10;;;0.10;;
8040;SDS011;4063;48.140;10.250;2023-11-19T08:26:18;0.20;;;0.20;;
8040;SDS011;4063;48.140;10.250;2023-11-19T08:28:44;0.20;;;0.20;;
8040;SDS011;4063;48.140;10.250;2023-11-19T08:31:10;0.20;;;0.20;;
8040;SDS011;4063;48.140;10.250;2023-11-19T08:33:36;0.20;;;0.20;;
8040;SDS011;4063;48.140;10.250;2023-11-19T08:36:02;0.17;;;0.17;;
8040;SDS011;4063;48.140;10.250;2023-11-19T08:38:29;0.20;;;0.20;;
8040;SDS011;4063;48.140;10.250;2023-11-19T08:40:55;0.20;;;0.20;;
8040;SDS011;4063;48.140;10.250;2023-11-19T08:43:25;0.20;;;0.20;;
8040;SDS011;4063;48.140;10.250;2023-11-19T08:45:51;0.20;;;0.20;;
8040;SDS011;4063;48.140;10.250;2023-11-19T08:48:17;0.20;;;0.20;;
8040;SDS011;4063;48.140;10.250;2023-11-19T08:50:43;0.20;;;0.20;;
8040;SDS011;4063;48.140;10.250;2023-11-19T08:53:09;0.20;;;0.20;;
8040;SDS011;4063;48.140;10.250;2023-11-19T08:55:36;0.20;;;0.20;;
8040;SDS011;4063;48.140;10.250;2023-11-19T08:58:02;0.20;;;0.20;;
8040;SDS011;4063;48.140;10.250;2023-11-19T09:00:28;0.10;;;0.10;;
8040;SDS011;4063;48.140;10.250;2023-11-19T09:02:54;0.20;;;0.20;;
8040;SDS011;4063;48.140;10.250;2023-11-19T09:05:20;0.20;;;0.20;;
8040;SDS011;4063;48.140;10.250;2023-11-19T09:07:46;0.20;;;0.20;;
8040;SDS011;4063;48.140;10.250;2023-11-19T09:10:14;0.20;;;0.20;;
8040;SDS011;4063;48.140;10.250;2023-11-19T09:12:41;0.20;;;0.20;;
8040;SDS011;4063;48.140;10.250;2023-11-19T09:15:07;0.20;;;0.20;;
8040;SDS011;4063;48.140;10.250;2023-11-19T09:17:35;0.20;;;0.20;;
8040;SDS011;4063;48.140;10.250;2023-11-19T09:20:01;0.20;;;0.20;;
8040;SDS011;4063;48.140;10.250;2023-11-19T09:22:27;0.20;;;0.20;;
8040;SDS011;4063;48.140;10.250;2023-11-19T09:24:53;0.20;;;0.20;;
8040;SDS011;4063;48.140;10.250;2023-11-19T09:27:19;0.20;;;0.20;;
8040;SDS011;4063;48.140;10.250;2023-11-19T09:29:45;0.50;;;0.50;;
8040;SDS011;4063;48.140;10.250;2023-11-19T09:32:13;0.10;;;0.10;;
8040;SDS011;4063;48.140;10.250;2023-11-19T09:34:39;0.20;;;0.20;;
8040;SDS011;4063;48.140;10.250;2023-11-19T09:37:06;0.20;;;0.20;;
8040;SDS011;4063;48.140;10.250;2023-11-19T09:39:32;0.20;;;0.20;;
8040;SDS011;4063;48.140;10.250;2023-11-19T09:41:58;0.13;;;0.13;;
8040;SDS011;4063;48.140;10.250;2023-11-19T09:44:24;0.10;;;0.10;;
8040;SDS011;4063;48.140;10.250;2023-11-19T09:46:51;0.20;;;0.20;;
8040;SDS011;4063;48.140;10.250;2023-11-19T09:49:18;0.20;;;0.20;;
8040;SDS011;4063;48.140;10.250;2023-11-19T09:51:48;0.20;;;0.20;;
8040;SDS011;4063;48.140;10.250;2023-11-19T09:54:14;0.20;;;0.20;;
8040;SDS011;4063;48.140;10.250;2023-11-19T09:56:40;0.20;;;0.20;;
8040;SDS011;4063;48.140;10.250;2023-11-19T09:59:07;0.20;;;0.20;;
8040;SDS011;4063;48.140;10.250;2023-11-19T10:01:35;0.20;;;0.20;;
8040;SDS011;4063;48.140;10.250;2023-11-19T10:04:01;0.20;;;0.20;;
8040;SDS011;4063;48.140;10.250;2023-11-19T10:06:27;0.20;;;0.20;;
8040;SDS011;4063;48.140;10.250;2023-11-19T10:08:53;0.20;;;0.20;;
8040;SDS011;4063;48.140;10.250;2023-11-19T10:11:20;0.20;;;0.20;;
8040;SDS011;4063;48.140;10.250;2023-11-19T10:13:46;0.20;;;0.20;;
8040;SDS011;4063;48.140;10.250;2023-11-19T10:16:13;0.20;;;0.20;;
8040;SDS011;4063;48.140;10.250;2023-11-19T10:18:43;0.20;;;0.20;;
8040;SDS011;4063;48.140;10.250;2023-11-19T10:21:08;0.20;;;0.20;;
8040;SDS011;4063;48.140;10.250;2023-11-19T10:26:15;0.20;;;0.20;;
8040;SDS011;4063;48.140;10.250;2023-11-19T10:28:41;0.17;;;0.17;;
8040;SDS011;4063;48.140;10.250;2023-11-19T10:31:09;0.20;;;0.20;;
8040;SDS011;4063;48.140;10.250;2023-11-19T10:33:35;0.20;;;0.20;;
8040;SDS011;4063;48.140;10.250;2023-11-19T10:36:01;0.20;;;0.20;;
8040;SDS011;4063;48.140;10.250;2023-11-19T10:38:27;0.20;;;0.20;;
8040;SDS011;4063;48.140;10.250;2023-11-19T10:40:53;0.13;;;0.13;;
8040;SDS011;4063;48.140;10.250;2023-11-19T10:43:20;0.20;;;0.20;;
8040;SDS011;4063;48.140;10.250;2023-11-19T10:45:50;0.20;;;0.20;;
8040;SDS011;4063;48.140;10.250;2023-11-19T10:48:16;0.20;;;0.20;;
8040;SDS011;4063;48.140;10.250;2023-11-19T10:50:43;0.17;;;0.17;;
8040;SDS011;4063;48.140;10.250;2023-11-19T10:53:10;0.20;;;0.20;;
8040;SDS011;4063;48.140;10.250;2023-11-19T10:55:40;0.10;;;0.10;;
8040;SDS011;4063;48.140;10.250;2023-11-19T10:58:10;0.10;;;0.10;;
8040;SDS011;4063;48.140;10.250;2023-11-19T11:00:43;0.20;;;0.20;;
8040;SDS011;4063;48.140;10.250;2023-11-19T11:03:16;0.10;;;0.10;;
8040;SDS011;4063;48.140;10.250;2023-11-19T11:05:43;0.10;;;0.10;;
8040;SDS011;4063;48.140;10.250;2023-11-19T11:08:12;0.10;;;0.10;;
8040;SDS011;4063;48.140;10.250;2023-11-19T11:10:45;0.20;;;0.20;;
8040;SDS011;4063;48.140;10.250;2023-11-19T11:13:11;0.20;;;0.20;;
8040;SDS011;4063;48.140;10.250;2023-11-19T11:15:39;0.20;;;0.20;;
8040;SDS011;4063;48.140;10.250;2023-11-19T11:18:08;0.13;;;0.13;;
8040;SDS011;4063;48.140;10.250;2023-11-19T11:20:35;0.20;;;0.20;;
8040;SDS011;4063;48.140;10.250;2023-11-19T11:23:06;0.20;;;0.20;;
8040;SDS011;4063;48.140;10.250;2023-11-19T11:28:08;0.20;;;0.20;;
8040;SDS011;4063;48.140;10.250;2023-11-19T11:33:32;0.10;;;0.10;;
8040;SDS011;4063;48.140;10.250;2023-11-19T11:36:19;0.20;;;0.20;;
8040;SDS011;4063;48.140;10.250;2023-11-19T11:38:47;0.10;;;0.10;;
8040;SDS011;4063;48.140;10.250;2023-11-19T11:41:20;0.63;;;0.50;;
8040;SDS011;4063;48.140;10.250;2023-11-19T11:48:57;1.27;;;1.10;;
8040;SDS011;4063;48.140;10.250;2023-11-19T11:57:04;1.27;;;1.08;;
8040;SDS011;4063;48.140;10.250;2023-11-19T12:02:07;0.80;;;0.80;;
8040;SDS011;4063;48.140;10.250;2023-11-19T12:04:34;1.10;;;1.00;;
8040;SDS011;4063;48.140;10.250;2023-11-19T12:09:29;0.98;;;0.88;;
8040;SDS011;4063;48.140;10.250;2023-11-19T12:17:48;1.98;;;0.73;;
8040;SDS011;4063;48.140;10.250;2023-11-19T12:20:14;0.70;;;0.70;;
8040;SDS011;4063;48.140;10.250;2023-11-19T12:22:41;0.80;;;0.80;;
8040;SDS011;4063;48.140;10.250;2023-11-19T12:25:09;1.13;;;0.95;;
8040;SDS011;4063;48.140;10.250;2023-11-19T12:27:41;2.25;;;0.95;;
8040;SDS011;4063;48.140;10.250;2023-11-19T12:30:08;0.80;;;0.80;;
8040;SDS011;4063;48.140;10.250;2023-11-19T12:32:37;1.50;;;0.93;;
8040;SDS011;4063;48.140;10.250;2023-11-19T12:35:04;0.90;;;0.88;;
8040;SDS011;4063;48.140;10.250;2023-11-19T12:37:30;0.85;;;0.85;;
8040;SDS011;4063;48.140;10.250;2023-11-19T12:39:57;1.55;;;1.00;;
8040;SDS011;4063;48.140;10.250;2023-11-19T12:42:36;0.90;;;0.90;;
8040;SDS011;4063;48.140;10.250;2023-11-19T12:45:02;2.65;;;0.63;;
8040;SDS011;4063;48.140;10.250;2023-11-19T12:47:29;1.40;;;1.00;;
8040;SDS011;4063;48.140;10.250;2023-11-19T12:49:58;0.55;;;0.55;;
8040;SDS011;4063;48.140;10.250;2023-11-19T12:52:24;0.98;;;0.90;;
8040;SDS011;4063;48.140;10.250;2023-11-19T12:54:50;0.60;;;0.60;;
8040;SDS011;4063;48.140;10.250;2023-11-19T12:57:16;0.85;;;0.85;;
8040;SDS011;4063;48.140;10.250;2023-11-19T12:59:54;1.15;;;0.80;;
8040;SDS011;4063;48.140;10.250;2023-11-19T13:02:21;0.82;;;0.82;;
8040;SDS011;4063;48.140;10.250;2023-11-19T13:04:47;1.80;;;0.77;;
8040;SDS011;4063;48.140;10.250;2023-11-19T13:07:13;0.60;;;0.60;;
8040;SDS011;4063;48.140;10.250;2023-11-19T13:09:38;1.17;;;0.70;;
8040;SDS011;4063;48.140;10.250;2023-11-19T13:12:14;0.85;;;0.80;;
8040;SDS011;4063;48.140;10.250;2023-11-19T13:14:40;1.05;;;0.90;;
8040;SDS011;4063;48.140;10.250;2023-11-19T13:17:07;0.63;;;0.63;;
8040;SDS011;4063;48.140;10.250;2023-11-19T13:19:33;1.05;;;0.70;;
8040;SDS011;4063;48.140;10.250;2023-11-19T13:21:59;3.25;;;0.98;;
8040;SDS011;4063;48.140;10.250;2023-11-19T13:24:25;3.03;;;0.80;;
8040;SDS011;4063;48.140;10.250;2023-11-19T13:26:51;0.50;;;0.50;;
8040;SDS011;4063;48.140;10.250;2023-11-19T13:29:17;0.40;;;0.40;;
8040;SDS011;4063;48.140;10.250;2023-11-19T13:31:43;0.70;;;0.70;;
8040;SDS011;4063;48.140;10.250;2023-11-19T13:34:09;0.57;;;0.57;;
8040;SDS011;4063;48.140;10.250;2023-11-19T13:36:35;0.70;;;0.70;;
8040;SDS011;4063;48.140;10.250;2023-11-19T13:39:01;0.85;;;0.85;;
8040;SDS011;4063;48.140;10.250;2023-11-19T13:41:27;0.60;;;0.60;;
8040;SDS011;4063;48.140;10.250;2023-11-19T13:43:53;1.05;;;0.70;;
8040;SDS011;4063;48.140;10.250;2023-11-19T13:46:20;0.80;;;0.80;;
8040;SDS011;4063;48.140;10.250;2023-11-19T13:48:46;0.70;;;0.70;;
8040;SDS011;4063;48.140;10.250;2023-11-19T13:51:14;0.77;;;0.70;;
8040;SDS011;4063;48.140;10.250;2023-11-19T13:53:40;0.75;;;0.75;;
8040;SDS011;4063;48.140;10.250;2023-11-19T13:56:06;2.72;;;1.00;;
8040;SDS011;4063;48.140;10.250;2023-11-19T13:58:33;0.90;;;0.90;;
8040;SDS011;4063;48.140;10.250;2023-11-19T14:01:00;1.00;;;1.00;;
8040;SDS011;4063;48.140;10.250;2023-11-19T14:03:26;1.05;;;0.90;;
8040;SDS011;4063;48.140;10.250;2023-11-19T14:05:52;2.25;;;0.70;;
8040;SDS011;4063;48.140;10.250;2023-11-19T14:08:20;1.00;;;0.80;;
8040;SDS011;4063;48.140;10.250;2023-11-19T14:10:46;2.28;;;0.90;;
8040;SDS011;4063;48.140;10.250;2023-11-19T14:13:12;0.53;;;0.53;;
8040;SDS011;4063;48.140;10.250;2023-11-19T14:15:40;0.73;;;0.73;;
8040;SDS011;4063;48.140;10.250;2023-11-19T14:18:07;0.67;;;0.63;;
8040;SDS011;4063;48.140;10.250;2023-11-19T14:20:33;1.15;;;0.80;;
8040;SDS011;4063;48.140;10.250;2023-11-19T14:23:00;1.08;;;0.95;;
8040;SDS011;4063;48.140;10.250;2023-11-19T14:25:27;1.33;;;0.93;;
8040;SDS011;4063;48.140;10.250;2023-11-19T14:27:53;1.02;;;1.02;;
8040;SDS011;4063;48.140;10.250;2023-11-19T14:30:19;0.80;;;0.80;;
8040;SDS011;4063;48.140;10.250;2023-11-19T14:32:45;0.80;;;0.80;;
8040;SDS011;4063;48.140;10.250;2023-11-19T14:35:13;0.80;;;0.80;;
8040;SDS011;4063;48.140;10.250;2023-11-19T14:37:39;1.25;;;0.70;;
8040;SDS011;4063;48.140;10.250;2023-11-19T14:40:05;0.90;;;0.90;;
8040;SDS011;4063;48.140;10.250;2023-11-19T14:42:36;0.82;;;0.82;;
8040;SDS011;4063;48.140;10.250;2023-11-19T14:45:02;1.77;;;1.20;;
8040;SDS011;4063;48.140;10.250;2023-11-19T14:47:28;1.20;;;0.90;;
8040;SDS011;4063;48.140;10.250;2023-11-19T14:49:55;1.50;;;1.20;;
8040;SDS011;4063;48.140;10.250;2023-11-19T14:52:21;0.68;;;0.68;;
8040;SDS011;4063;48.140;10.250;2023-11-19T14:54:47;0.93;;;0.90;;
8040;SDS011;4063;48.140;10.250;2023-11-19T14:57:14;1.02;;;0.98;;
8040;SDS011;4063;48.140;10.250;2023-11-19T14:59:40;2.55;;;1.20;;
8040;SDS011;4063;48.140;10.250;2023-11-19T15:02:06;1.15;;;1.00;;
8040;SDS011;4063;48.140;10.250;2023-11-19T15:04:32;0.98;;;0.98;;
8040;SDS011;4063;48.140;10.250;2023-11-19T15:06:59;0.57;;;0.57;;
8040;SDS011;4063;48.140;10.250;2023-11-19T15:09:25;0.70;;;0.70;;
8040;SDS011;4063;48.140;10.250;2023-11-19T15:11:54;0.80;;;0.80;;
8040;SDS011;4063;48.140;10.250;2023-11-19T15:14:20;0.80;;;0.80;;
8040;SDS011;4063;48.140;10.250;2023-11-19T15:16:46;1.35;;;1.00;;
8040;SDS011;4063;48.140;10.250;2023-11-19T15:19:15;0.80;;;0.80;;
8040;SDS011;4063;48.140;10.250;2023-11-19T15:21:41;0.50;;;0.50;;
8040;SDS011;4063;48.140;10.250;2023-11-19T15:24:07;0.70;;;0.70;;
8040;SDS011;4063;48.140;10.250;2023-11-19T15:26:34;1.65;;;0.65;;
8040;SDS011;4063;48.140;10.250;2023-11-19T15:29:00;1.10;;;1.00;;